Etter, Minnesota
Current Conditions -  °F | °C
As of 3:53 AM on Thursday 23 Oct 2014 (Local Time) from KSYN Reporting Station
Overcast Overcast  
Wind Chill: 51°   Ceiling: 2200
Heat Index: 51°   Visibility: 10mi
Dew Point: 47°   Wind: 8mph
Humidity: 87%   Direction: 180°S
Pressure: 30"   Gusts: NA
Location:  44.6055°N, 92.7163°W
Report Text: KSYN 230853Z AUTO 18007KT 10SM OVC022 11/09 A3000 RMK AO2 P0001 60001 T01050085
Loading
Personal Weather Stations






























Interactive Weather Map
Tropical Storm Tracking
New forecast layout! Learn more

10-Day Weather Forecast

Advertisements
Track Severe Weather on mobile